sensor_id;sensor_type;location;lat;lon;timestamp;temperature;humidity
16160;DHT22;8185;57.818;15.224;2022-07-05T00:02:10;12.30;99.90
16160;DHT22;8185;57.818;15.224;2022-07-05T00:04:39;12.20;99.90
16160;DHT22;8185;57.818;15.224;2022-07-05T00:07:06;12.20;99.90
16160;DHT22;8185;57.818;15.224;2022-07-05T00:09:47;12.10;99.90
16160;DHT22;8185;57.818;15.224;2022-07-05T00:12:15;12.10;99.90
16160;DHT22;8185;57.818;15.224;2022-07-05T00:14:45;12.10;99.90
16160;DHT22;8185;57.818;15.224;2022-07-05T00:17:13;12.00;99.90
16160;DHT22;8185;57.818;15.224;2022-07-05T00:19:42;12.00;99.90
16160;DHT22;8185;57.818;15.224;2022-07-05T00:22:10;12.10;99.90
16160;DHT22;8185;57.818;15.224;2022-07-05T00:24:37;12.10;99.90
16160;DHT22;8185;57.818;15.224;2022-07-05T00:27:04;12.10;99.90
16160;DHT22;8185;57.818;15.224;2022-07-05T00:29:32;12.10;99.90
16160;DHT22;8185;57.818;15.224;2022-07-05T00:31:59;12.10;99.90
16160;DHT22;8185;57.818;15.224;2022-07-05T00:34:26;12.10;99.90
16160;DHT22;8185;57.818;15.224;2022-07-05T00:36:55;12.20;99.90
16160;DHT22;8185;57.818;15.224;2022-07-05T00:39:22;12.20;99.90
16160;DHT22;8185;57.818;15.224;2022-07-05T00:41:49;12.20;99.90
16160;DHT22;8185;57.818;15.224;2022-07-05T00:44:17;12.10;99.90
16160;DHT22;8185;57.818;15.224;2022-07-05T00:46:54;12.00;99.90
16160;DHT22;8185;57.818;15.224;2022-07-05T00:49:21;12.00;99.90
16160;DHT22;8185;57.818;15.224;2022-07-05T00:51:49;12.00;99.90
16160;DHT22;8185;57.818;15.224;2022-07-05T00:54:17;12.00;99.90
16160;DHT22;8185;57.818;15.224;2022-07-05T00:56:45;12.10;99.90
16160;DHT22;8185;57.818;15.224;2022-07-05T00:59:12;12.10;99.90
16160;DHT22;8185;57.818;15.224;2022-07-05T01:01:39;12.10;99.90
16160;DHT22;8185;57.818;15.224;2022-07-05T01:04:06;12.10;99.90
16160;DHT22;8185;57.818;15.224;2022-07-05T01:06:34;12.10;99.90
16160;DHT22;8185;57.818;15.224;2022-07-05T01:09:01;12.10;99.90
16160;DHT22;8185;57.818;15.224;2022-07-05T01:11:30;12.10;99.90
16160;DHT22;8185;57.818;15.224;2022-07-05T01:13:59;12.10;99.90
16160;DHT22;8185;57.818;15.224;2022-07-05T01:16:27;12.10;99.90
16160;DHT22;8185;57.818;15.224;2022-07-05T01:18:55;12.10;99.90
16160;DHT22;8185;57.818;15.224;2022-07-05T01:21:23;12.00;99.90
16160;DHT22;8185;57.818;15.224;2022-07-05T01:23:54;12.00;99.90
16160;DHT22;8185;57.818;15.224;2022-07-05T01:26:21;11.90;99.90
16160;DHT22;8185;57.818;15.224;2022-07-05T01:28:49;11.80;99.90
16160;DHT22;8185;57.818;15.224;2022-07-05T01:31:16;11.80;99.90
16160;DHT22;8185;57.818;15.224;2022-07-05T01:33:43;11.80;99.90
16160;DHT22;8185;57.818;15.224;2022-07-05T01:36:11;11.80;99.90
16160;DHT22;8185;57.818;15.224;2022-07-05T01:38:38;11.80;99.90
16160;DHT22;8185;57.818;15.224;2022-07-05T01:41:08;11.80;99.90
16160;DHT22;8185;57.818;15.224;2022-07-05T01:43:36;11.80;99.90
16160;DHT22;8185;57.818;15.224;2022-07-05T01:46:05;11.80;99.90
16160;DHT22;8185;57.818;15.224;2022-07-05T01:48:36;11.70;99.90
16160;DHT22;8185;57.818;15.224;2022-07-05T01:51:09;11.70;99.90
16160;DHT22;8185;57.818;15.224;2022-07-05T01:53:39;11.70;99.90
16160;DHT22;8185;57.818;15.224;2022-07-05T01:56:09;11.70;99.90
16160;DHT22;8185;57.818;15.224;2022-07-05T01:58:37;11.70;99.90
16160;DHT22;8185;57.818;15.224;2022-07-05T02:01:05;11.60;99.90
16160;DHT22;8185;57.818;15.224;2022-07-05T02:03:32;11.60;99.90
16160;DHT22;8185;57.818;15.224;2022-07-05T02:05:59;11.60;99.90
16160;DHT22;8185;57.818;15.224;2022-07-05T02:08:29;11.60;99.90
16160;DHT22;8185;57.818;15.224;2022-07-05T02:10:56;11.70;99.90
16160;DHT22;8185;57.818;15.224;2022-07-05T02:13:25;11.60;99.90
16160;DHT22;8185;57.818;15.224;2022-07-05T02:15:54;11.60;99.90
16160;DHT22;8185;57.818;15.224;2022-07-05T02:18:23;11.60;99.90
16160;DHT22;8185;57.818;15.224;2022-07-05T02:20:50;11.60;99.90
16160;DHT22;8185;57.818;15.224;2022-07-05T02:23:17;11.60;99.90
16160;DHT22;8185;57.818;15.224;2022-07-05T02:25:44;11.60;99.90
16160;DHT22;8185;57.818;15.224;2022-07-05T02:28:12;11.60;99.90
16160;DHT22;8185;57.818;15.224;2022-07-05T02:30:41;11.70;99.90
16160;DHT22;8185;57.818;15.224;2022-07-05T02:33:08;11.70;99.90
16160;DHT22;8185;57.818;15.224;2022-07-05T02:35:36;11.80;99.90
16160;DHT22;8185;57.818;15.224;2022-07-05T02:38:03;11.80;99.90
16160;DHT22;8185;57.818;15.224;2022-07-05T02:40:30;11.90;99.90
16160;DHT22;8185;57.818;15.224;2022-07-05T02:42:58;11.80;99.90
16160;DHT22;8185;57.818;15.224;2022-07-05T02:45:25;11.80;99.90
16160;DHT22;8185;57.818;15.224;2022-07-05T02:47:53;11.80;99.90
16160;DHT22;8185;57.818;15.224;2022-07-05T02:50:21;11.70;99.90
16160;DHT22;8185;57.818;15.224;2022-07-05T02:52:48;11.70;99.90
16160;DHT22;8185;57.818;15.224;2022-07-05T02:55:15;11.80;99.90
16160;DHT22;8185;57.818;15.224;2022-07-05T02:57:42;11.80;99.90
16160;DHT22;8185;57.818;15.224;2022-07-05T03:00:11;11.70;99.90
16160;DHT22;8185;57.818;15.224;2022-07-05T03:02:38;11.80;99.90
16160;DHT22;8185;57.818;15.224;2022-07-05T03:05:08;11.80;99.90
16160;DHT22;8185;57.818;15.224;2022-07-05T03:07:35;11.80;99.90
16160;DHT22;8185;57.818;15.224;2022-07-05T03:10:03;11.80;99.90
16160;DHT22;8185;57.818;15.224;2022-07-05T03:12:30;11.90;99.90
16160;DHT22;8185;57.818;15.224;2022-07-05T03:14:57;11.90;99.90
16160;DHT22;8185;57.818;15.224;2022-07-05T03:17:24;12.00;99.90
16160;DHT22;8185;57.818;15.224;2022-07-05T03:19:52;12.00;99.90
16160;DHT22;8185;57.818;15.224;2022-07-05T03:22:20;12.00;99.90
16160;DHT22;8185;57.818;15.224;2022-07-05T03:24:48;12.10;99.90
16160;DHT22;8185;57.818;15.224;2022-07-05T03:27:15;12.10;99.90
16160;DHT22;8185;57.818;15.224;2022-07-05T03:29:42;12.20;99.90
16160;DHT22;8185;57.818;15.224;2022-07-05T03:32:09;12.20;99.90
16160;DHT22;8185;57.818;15.224;2022-07-05T03:34:37;12.20;99.90
16160;DHT22;8185;57.818;15.224;2022-07-05T03:37:04;12.10;99.90
16160;DHT22;8185;57.818;15.224;2022-07-05T03:39:33;12.10;99.90
16160;DHT22;8185;57.818;15.224;2022-07-05T03:42:00;12.10;99.90
16160;DHT22;8185;57.818;15.224;2022-07-05T03:44:27;12.10;99.90
16160;DHT22;8185;57.818;15.224;2022-07-05T03:46:57;12.00;99.90
16160;DHT22;8185;57.818;15.224;2022-07-05T03:49:25;12.10;99.90
16160;DHT22;8185;57.818;15.224;2022-07-05T03:51:52;12.10;99.90
16160;DHT22;8185;57.818;15.224;2022-07-05T03:54:19;12.10;99.90
16160;DHT22;8185;57.818;15.224;2022-07-05T03:56:48;12.10;99.90
16160;DHT22;8185;57.818;15.224;2022-07-05T03:59:15;12.20;99.90
16160;DHT22;8185;57.818;15.224;2022-07-05T04:01:42;12.20;99.90
16160;DHT22;8185;57.818;15.224;2022-07-05T04:04:10;12.30;99.90
16160;DHT22;8185;57.818;15.224;2022-07-05T04:06:37;12.30;99.90
16160;DHT22;8185;57.818;15.224;2022-07-05T04:09:04;12.40;99.90
16160;DHT22;8185;57.818;15.224;2022-07-05T04:11:31;12.40;99.90
16160;DHT22;8185;57.818;15.224;2022-07-05T04:14:00;12.40;99.90
16160;DHT22;8185;57.818;15.224;2022-07-05T04:16:27;12.40;99.90
16160;DHT22;8185;57.818;15.224;2022-07-05T04:18:55;12.40;99.90
16160;DHT22;8185;57.818;15.224;2022-07-05T04:21:22;12.50;99.90
16160;DHT22;8185;57.818;15.224;2022-07-05T04:23:49;12.60;99.90
16160;DHT22;8185;57.818;15.224;2022-07-05T04:26:16;12.60;99.90
16160;DHT22;8185;57.818;15.224;2022-07-05T04:28:44;12.70;99.90
16160;DHT22;8185;57.818;15.224;2022-07-05T04:31:13;12.70;99.90
16160;DHT22;8185;57.818;15.224;2022-07-05T04:33:40;12.70;99.90
16160;DHT22;8185;57.818;15.224;2022-07-05T04:36:08;12.70;99.90
16160;DHT22;8185;57.818;15.224;2022-07-05T04:38:35;12.70;99.90
16160;DHT22;8185;57.818;15.224;2022-07-05T04:41:02;12.80;99.90
16160;DHT22;8185;57.818;15.224;2022-07-05T04:43:30;12.90;99.90
16160;DHT22;8185;57.818;15.224;2022-07-05T04:45:59;12.90;99.90
16160;DHT22;8185;57.818;15.224;2022-07-05T04:48:27;13.10;99.90
16160;DHT22;8185;57.818;15.224;2022-07-05T04:50:54;13.10;99.90
16160;DHT22;8185;57.818;15.224;2022-07-05T04:53:22;13.10;99.90
16160;DHT22;8185;57.818;15.224;2022-07-05T04:55:49;13.10;99.90
16160;DHT22;8185;57.818;15.224;2022-07-05T04:58:16;13.20;99.90
16160;DHT22;8185;57.818;15.224;2022-07-05T05:00:43;13.20;99.90
16160;DHT22;8185;57.818;15.224;2022-07-05T05:03:11;13.10;99.90
16160;DHT22;8185;57.818;15.224;2022-07-05T05:05:39;13.10;99.90
16160;DHT22;8185;57.818;15.224;2022-07-05T05:08:06;13.20;99.90
16160;DHT22;8185;57.818;15.224;2022-07-05T05:10:34;13.30;99.90
16160;DHT22;8185;57.818;15.224;2022-07-05T05:13:01;13.40;99.90
16160;DHT22;8185;57.818;15.224;2022-07-05T05:15:28;13.30;99.90
16160;DHT22;8185;57.818;15.224;2022-07-05T05:17:55;13.30;99.90
16160;DHT22;8185;57.818;15.224;2022-07-05T05:20:23;13.40;99.90
16160;DHT22;8185;57.818;15.224;2022-07-05T05:22:52;13.50;99.90
16160;DHT22;8185;57.818;15.224;2022-07-05T05:25:19;13.40;99.90
16160;DHT22;8185;57.818;15.224;2022-07-05T05:27:48;13.40;99.90
16160;DHT22;8185;57.818;15.224;2022-07-05T05:30:17;13.50;99.90
16160;DHT22;8185;57.818;15.224;2022-07-05T05:32:44;13.50;99.90
16160;DHT22;8185;57.818;15.224;2022-07-05T05:35:12;13.50;99.90
16160;DHT22;8185;57.818;15.224;2022-07-05T05:37:46;13.60;99.90
16160;DHT22;8185;57.818;15.224;2022-07-05T05:40:16;13.60;99.90
16160;DHT22;8185;57.818;15.224;2022-07-05T05:42:43;13.60;99.90
16160;DHT22;8185;57.818;15.224;2022-07-05T05:45:11;13.60;99.90
16160;DHT22;8185;57.818;15.224;2022-07-05T05:47:46;13.70;99.90
16160;DHT22;8185;57.818;15.224;2022-07-05T05:50:13;13.80;99.90
16160;DHT22;8185;57.818;15.224;2022-07-05T05:52:41;14.00;99.90
16160;DHT22;8185;57.818;15.224;2022-07-05T05:55:08;14.00;99.90
16160;DHT22;8185;57.818;15.224;2022-07-05T05:57:37;13.90;99.90
16160;DHT22;8185;57.818;15.224;2022-07-05T06:00:05;14.00;99.90
16160;DHT22;8185;57.818;15.224;2022-07-05T06:02:33;14.00;99.90
16160;DHT22;8185;57.818;15.224;2022-07-05T06:05:01;14.10;99.90
16160;DHT22;8185;57.818;15.224;2022-07-05T06:07:28;14.20;99.90
16160;DHT22;8185;57.818;15.224;2022-07-05T06:09:55;14.20;99.90
16160;DHT22;8185;57.818;15.224;2022-07-05T06:12:23;14.10;99.90
16160;DHT22;8185;57.818;15.224;2022-07-05T06:14:51;14.20;99.90
16160;DHT22;8185;57.818;15.224;2022-07-05T06:17:19;14.00;99.90
16160;DHT22;8185;57.818;15.224;2022-07-05T06:19:46;14.10;99.90
16160;DHT22;8185;57.818;15.224;2022-07-05T06:22:13;14.20;99.90
16160;DHT22;8185;57.818;15.224;2022-07-05T06:24:40;14.10;99.90
16160;DHT22;8185;57.818;15.224;2022-07-05T06:27:07;14.00;99.90
16160;DHT22;8185;57.818;15.224;2022-07-05T06:29:35;14.00;99.90
16160;DHT22;8185;57.818;15.224;2022-07-05T06:32:04;14.30;99.90
16160;DHT22;8185;57.818;15.224;2022-07-05T06:34:31;14.40;99.90
16160;DHT22;8185;57.818;15.224;2022-07-05T06:36:59;14.60;99.90
16160;DHT22;8185;57.818;15.224;2022-07-05T06:39:26;14.50;99.90
16160;DHT22;8185;57.818;15.224;2022-07-05T06:41:53;14.40;99.90
16160;DHT22;8185;57.818;15.224;2022-07-05T06:44:21;14.70;99.90
16160;DHT22;8185;57.818;15.224;2022-07-05T06:46:48;14.70;99.90
16160;DHT22;8185;57.818;15.224;2022-07-05T06:49:17;14.90;99.90
16160;DHT22;8185;57.818;15.224;2022-07-05T06:51:44;14.90;99.90
16160;DHT22;8185;57.818;15.224;2022-07-05T06:54:11;15.10;99.90
16160;DHT22;8185;57.818;15.224;2022-07-05T06:56:38;15.00;99.90
16160;DHT22;8185;57.818;15.224;2022-07-05T06:59:06;14.80;99.90
16160;DHT22;8185;57.818;15.224;2022-07-05T07:01:33;14.60;99.90
16160;DHT22;8185;57.818;15.224;2022-07-05T07:04:00;14.50;99.90
16160;DHT22;8185;57.818;15.224;2022-07-05T07:06:29;14.40;99.90
16160;DHT22;8185;57.818;15.224;2022-07-05T07:08:56;14.40;99.90
16160;DHT22;8185;57.818;15.224;2022-07-05T07:11:41;14.90;99.90
16160;DHT22;8185;57.818;15.224;2022-07-05T07:14:10;15.40;99.90
16160;DHT22;8185;57.818;15.224;2022-07-05T07:16:37;15.40;99.90
16160;DHT22;8185;57.818;15.224;2022-07-05T07:19:05;15.20;99.90
16160;DHT22;8185;57.818;15.224;2022-07-05T07:21:33;15.10;99.90
16160;DHT22;8185;57.818;15.224;2022-07-05T07:24:00;15.00;99.90
16160;DHT22;8185;57.818;15.224;2022-07-05T07:26:28;14.90;99.90
16160;DHT22;8185;57.818;15.224;2022-07-05T07:28:55;15.00;99.90
16160;DHT22;8185;57.818;15.224;2022-07-05T07:31:23;15.10;99.90
16160;DHT22;8185;57.818;15.224;2022-07-05T07:33:51;15.10;99.90
16160;DHT22;8185;57.818;15.224;2022-07-05T07:36:18;15.10;99.90
16160;DHT22;8185;57.818;15.224;2022-07-05T07:38:47;15.10;99.90
16160;DHT22;8185;57.818;15.224;2022-07-05T07:41:14;14.80;99.90
16160;DHT22;8185;57.818;15.224;2022-07-05T07:43:42;14.70;99.90
16160;DHT22;8185;57.818;15.224;2022-07-05T07:46:09;14.70;99.90
16160;DHT22;8185;57.818;15.224;2022-07-05T07:48:36;14.70;99.90
16160;DHT22;8185;57.818;15.224;2022-07-05T07:51:03;14.70;99.90
16160;DHT22;8185;57.818;15.224;2022-07-05T07:53:31;14.80;99.90
16160;DHT22;8185;57.818;15.224;2022-07-05T07:55:59;14.80;99.90
16160;DHT22;8185;57.818;15.224;2022-07-05T07:58:27;15.30;99.90
16160;DHT22;8185;57.818;15.224;2022-07-05T08:00:54;15.80;99.90
16160;DHT22;8185;57.818;15.224;2022-07-05T08:03:21;16.20;99.90
16160;DHT22;8185;57.818;15.224;2022-07-05T08:05:48;16.20;99.90
16160;DHT22;8185;57.818;15.224;2022-07-05T08:08:16;16.10;99.90
16160;DHT22;8185;57.818;15.224;2022-07-05T08:10:43;16.00;99.90
16160;DHT22;8185;57.818;15.224;2022-07-05T08:13:12;15.80;99.90
16160;DHT22;8185;57.818;15.224;2022-07-05T08:15:39;15.50;99.90
16160;DHT22;8185;57.818;15.224;2022-07-05T08:18:06;15.50;99.90
16160;DHT22;8185;57.818;15.224;2022-07-05T08:20:51;15.50;99.90
16160;DHT22;8185;57.818;15.224;2022-07-05T08:23:38;15.80;99.90
16160;DHT22;8185;57.818;15.224;2022-07-05T08:26:05;15.80;99.90
16160;DHT22;8185;57.818;15.224;2022-07-05T08:28:34;16.00;99.90
16160;DHT22;8185;57.818;15.224;2022-07-05T08:31:02;16.40;99.90
16160;DHT22;8185;57.818;15.224;2022-07-05T08:33:29;16.80;99.90
16160;DHT22;8185;57.818;15.224;2022-07-05T08:35:56;17.20;99.90
16160;DHT22;8185;57.818;15.224;2022-07-05T08:38:24;17.90;99.90
16160;DHT22;8185;57.818;15.224;2022-07-05T08:40:52;18.00;99.90
16160;DHT22;8185;57.818;15.224;2022-07-05T08:43:22;17.20;99.90
16160;DHT22;8185;57.818;15.224;2022-07-05T08:45:53;16.80;99.90
16160;DHT22;8185;57.818;15.224;2022-07-05T08:48:21;16.10;99.90
16160;DHT22;8185;57.818;15.224;2022-07-05T08:50:48;15.80;99.90
16160;DHT22;8185;57.818;15.224;2022-07-05T08:53:18;15.80;99.90
16160;DHT22;8185;57.818;15.224;2022-07-05T08:55:46;15.80;99.90
16160;DHT22;8185;57.818;15.224;2022-07-05T08:58:13;16.10;99.90
16160;DHT22;8185;57.818;15.224;2022-07-05T09:00:42;16.10;99.90
16160;DHT22;8185;57.818;15.224;2022-07-05T09:03:11;16.00;99.90
16160;DHT22;8185;57.818;15.224;2022-07-05T09:05:42;16.00;99.90
16160;DHT22;8185;57.818;15.224;2022-07-05T09:08:13;16.00;99.90
16160;DHT22;8185;57.818;15.224;2022-07-05T09:10:43;15.90;99.90
16160;DHT22;8185;57.818;15.224;2022-07-05T09:13:10;16.00;99.90
16160;DHT22;8185;57.818;15.224;2022-07-05T09:15:38;15.90;99.90
16160;DHT22;8185;57.818;15.224;2022-07-05T09:18:06;15.20;99.90
16160;DHT22;8185;57.818;15.224;2022-07-05T09:20:35;14.80;99.90
16160;DHT22;8185;57.818;15.224;2022-07-05T09:23:02;14.10;99.90
16160;DHT22;8185;57.818;15.224;2022-07-05T09:25:32;14.50;99.90
16160;DHT22;8185;57.818;15.224;2022-07-05T09:28:03;14.80;99.90
16160;DHT22;8185;57.818;15.224;2022-07-05T09:30:33;14.70;99.90
16160;DHT22;8185;57.818;15.224;2022-07-05T09:33:06;15.10;99.90
16160;DHT22;8185;57.818;15.224;2022-07-05T09:35:36;15.50;99.90
16160;DHT22;8185;57.818;15.224;2022-07-05T09:38:04;16.60;99.90
16160;DHT22;8185;57.818;15.224;2022-07-05T09:40:33;16.50;99.90
16160;DHT22;8185;57.818;15.224;2022-07-05T09:43:13;16.10;99.90
16160;DHT22;8185;57.818;15.224;2022-07-05T09:45:53;16.20;99.90
16160;DHT22;8185;57.818;15.224;2022-07-05T09:48:21;16.50;99.90
16160;DHT22;8185;57.818;15.224;2022-07-05T09:50:50;16.70;99.90
16160;DHT22;8185;57.818;15.224;2022-07-05T09:53:20;16.70;99.90
16160;DHT22;8185;57.818;15.224;2022-07-05T09:56:03;17.00;99.90
16160;DHT22;8185;57.818;15.224;2022-07-05T09:58:30;17.50;99.90
16160;DHT22;8185;57.818;15.224;2022-07-05T10:00:58;17.40;99.90
16160;DHT22;8185;57.818;15.224;2022-07-05T10:03:27;17.60;99.90
16160;DHT22;8185;57.818;15.224;2022-07-05T10:06:10;17.50;99.90
16160;DHT22;8185;57.818;15.224;2022-07-05T10:08:37;17.10;99.90
16160;DHT22;8185;57.818;15.224;2022-07-05T10:11:06;16.80;99.90
16160;DHT22;8185;57.818;15.224;2022-07-05T10:13:33;16.90;99.90
16160;DHT22;8185;57.818;15.224;2022-07-05T10:16:01;16.70;99.90
16160;DHT22;8185;57.818;15.224;2022-07-05T10:18:28;16.80;99.90
16160;DHT22;8185;57.818;15.224;2022-07-05T10:20:59;17.20;99.90
16160;DHT22;8185;57.818;15.224;2022-07-05T10:23:30;17.40;99.90
16160;DHT22;8185;57.818;15.224;2022-07-05T10:25:58;17.50;99.90
16160;DHT22;8185;57.818;15.224;2022-07-05T10:28:26;17.40;99.90
16160;DHT22;8185;57.818;15.224;2022-07-05T10:30:54;17.60;99.90
16160;DHT22;8185;57.818;15.224;2022-07-05T10:33:22;17.80;99.90
16160;DHT22;8185;57.818;15.224;2022-07-05T10:35:53;17.80;99.90
16160;DHT22;8185;57.818;15.224;2022-07-05T10:38:22;17.80;99.90
16160;DHT22;8185;57.818;15.224;2022-07-05T10:40:52;18.10;99.90
16160;DHT22;8185;57.818;15.224;2022-07-05T10:43:22;18.10;99.90
16160;DHT22;8185;57.818;15.224;2022-07-05T10:45:51;18.30;99.90
16160;DHT22;8185;57.818;15.224;2022-07-05T10:48:19;18.80;99.90
16160;DHT22;8185;57.818;15.224;2022-07-05T10:50:51;19.00;99.90
16160;DHT22;8185;57.818;15.224;2022-07-05T10:53:21;19.70;99.90
16160;DHT22;8185;57.818;15.224;2022-07-05T10:55:59;20.50;99.90
16160;DHT22;8185;57.818;15.224;2022-07-05T10:58:28;19.70;99.90
16160;DHT22;8185;57.818;15.224;2022-07-05T11:07:05;18.40;99.90
16160;DHT22;8185;57.818;15.224;2022-07-05T11:09:35;18.30;99.90
16160;DHT22;8185;57.818;15.224;2022-07-05T11:12:07;19.50;99.90
16160;DHT22;8185;57.818;15.224;2022-07-05T11:14:39;19.50;99.90
16160;DHT22;8185;57.818;15.224;2022-07-05T11:17:19;20.10;99.90
16160;DHT22;8185;57.818;15.224;2022-07-05T11:20:12;19.70;99.90
16160;DHT22;8185;57.818;15.224;2022-07-05T11:23:00;20.00;99.90
16160;DHT22;8185;57.818;15.224;2022-07-05T11:25:31;20.10;99.90
16160;DHT22;8185;57.818;15.224;2022-07-05T11:28:06;19.30;99.90
16160;DHT22;8185;57.818;15.224;2022-07-05T11:30:48;19.70;99.90
16160;DHT22;8185;57.818;15.224;2022-07-05T11:33:38;20.80;99.90
16160;DHT22;8185;57.818;15.224;2022-07-05T11:36:07;20.30;98.30
16160;DHT22;8185;57.818;15.224;2022-07-05T11:39:09;19.10;99.90
16160;DHT22;8185;57.818;15.224;2022-07-05T11:41:39;18.30;99.90
16160;DHT22;8185;57.818;15.224;2022-07-05T11:44:08;17.90;99.90
16160;DHT22;8185;57.818;15.224;2022-07-05T11:46:35;18.30;99.90
16160;DHT22;8185;57.818;15.224;2022-07-05T11:49:03;19.60;99.90
16160;DHT22;8185;57.818;15.224;2022-07-05T11:51:30;21.10;99.40
16160;DHT22;8185;57.818;15.224;2022-07-05T11:53:58;21.50;97.70
16160;DHT22;8185;57.818;15.224;2022-07-05T11:56:27;21.10;97.70
16160;DHT22;8185;57.818;15.224;2022-07-05T11:58:56;20.10;97.30
16160;DHT22;8185;57.818;15.224;2022-07-05T12:01:23;20.30;96.70
16160;DHT22;8185;57.818;15.224;2022-07-05T12:03:54;21.30;96.50
16160;DHT22;8185;57.818;15.224;2022-07-05T12:06:22;21.20;95.20
16160;DHT22;8185;57.818;15.224;2022-07-05T12:09:04;19.80;95.70
16160;DHT22;8185;57.818;15.224;2022-07-05T12:11:31;18.90;96.40
16160;DHT22;8185;57.818;15.224;2022-07-05T12:14:21;19.00;97.60
16160;DHT22;8185;57.818;15.224;2022-07-05T12:16:49;19.40;97.20
16160;DHT22;8185;57.818;15.224;2022-07-05T12:19:26;19.60;96.90
16160;DHT22;8185;57.818;15.224;2022-07-05T12:21:54;19.50;96.90
16160;DHT22;8185;57.818;15.224;2022-07-05T12:24:21;18.80;96.90
16160;DHT22;8185;57.818;15.224;2022-07-05T12:26:50;19.00;95.40
16160;DHT22;8185;57.818;15.224;2022-07-05T12:29:18;18.40;95.50
16160;DHT22;8185;57.818;15.224;2022-07-05T12:32:02;18.40;94.80
16160;DHT22;8185;57.818;15.224;2022-07-05T12:34:30;19.60;95.40
16160;DHT22;8185;57.818;15.224;2022-07-05T12:36:57;20.50;94.00
16160;DHT22;8185;57.818;15.224;2022-07-05T12:39:25;20.90;93.40
16160;DHT22;8185;57.818;15.224;2022-07-05T12:41:53;21.20;92.50
16160;DHT22;8185;57.818;15.224;2022-07-05T12:44:22;21.30;92.40
16160;DHT22;8185;57.818;15.224;2022-07-05T12:46:50;20.70;93.40
16160;DHT22;8185;57.818;15.224;2022-07-05T12:49:19;19.70;94.10
16160;DHT22;8185;57.818;15.224;2022-07-05T12:51:46;19.00;95.30
16160;DHT22;8185;57.818;15.224;2022-07-05T12:54:23;18.70;96.40
16160;DHT22;8185;57.818;15.224;2022-07-05T12:57:08;18.60;97.50
16160;DHT22;8185;57.818;15.224;2022-07-05T13:00:01;17.80;98.00
16160;DHT22;8185;57.818;15.224;2022-07-05T13:02:39;16.90;98.30
16160;DHT22;8185;57.818;15.224;2022-07-05T13:05:10;16.20;99.90
16160;DHT22;8185;57.818;15.224;2022-07-05T13:07:45;15.80;99.90
16160;DHT22;8185;57.818;15.224;2022-07-05T13:10:14;15.80;99.90
16160;DHT22;8185;57.818;15.224;2022-07-05T13:12:42;15.80;99.90
16160;DHT22;8185;57.818;15.224;2022-07-05T13:15:09;15.50;99.90
16160;DHT22;8185;57.818;15.224;2022-07-05T13:17:37;15.70;99.90
16160;DHT22;8185;57.818;15.224;2022-07-05T13:20:05;15.90;99.90
16160;DHT22;8185;57.818;15.224;2022-07-05T13:22:34;16.40;99.90
16160;DHT22;8185;57.818;15.224;2022-07-05T13:25:02;17.30;99.90
16160;DHT22;8185;57.818;15.224;2022-07-05T13:27:29;17.50;99.90
16160;DHT22;8185;57.818;15.224;2022-07-05T13:29:57;17.50;99.90
16160;DHT22;8185;57.818;15.224;2022-07-05T13:32:24;18.20;99.90
16160;DHT22;8185;57.818;15.224;2022-07-05T13:34:51;18.30;99.90
16160;DHT22;8185;57.818;15.224;2022-07-05T13:37:18;17.80;99.90
16160;DHT22;8185;57.818;15.224;2022-07-05T13:39:47;17.30;99.90
16160;DHT22;8185;57.818;15.224;2022-07-05T13:42:14;17.20;99.90
16160;DHT22;8185;57.818;15.224;2022-07-05T13:44:42;17.10;99.90
16160;DHT22;8185;57.818;15.224;2022-07-05T13:47:09;17.20;99.90
16160;DHT22;8185;57.818;15.224;2022-07-05T13:49:37;17.40;99.90
16160;DHT22;8185;57.818;15.224;2022-07-05T13:52:06;17.40;99.90
16160;DHT22;8185;57.818;15.224;2022-07-05T13:54:33;18.50;99.90
16160;DHT22;8185;57.818;15.224;2022-07-05T13:57:02;19.50;99.90
16160;DHT22;8185;57.818;15.224;2022-07-05T13:59:30;19.90;99.90
16160;DHT22;8185;57.818;15.224;2022-07-05T14:01:58;21.10;98.60
16160;DHT22;8185;57.818;15.224;2022-07-05T14:04:25;20.00;97.90
16160;DHT22;8185;57.818;15.224;2022-07-05T14:06:55;19.80;99.90
16160;DHT22;8185;57.818;15.224;2022-07-05T14:09:23;20.90;98.90
16160;DHT22;8185;57.818;15.224;2022-07-05T14:11:51;21.50;96.90
16160;DHT22;8185;57.818;15.224;2022-07-05T14:14:20;22.60;96.80
16160;DHT22;8185;57.818;15.224;2022-07-05T14:16:47;22.50;94.60
16160;DHT22;8185;57.818;15.224;2022-07-05T14:19:14;23.00;92.40
16160;DHT22;8185;57.818;15.224;2022-07-05T14:21:41;22.30;91.90
16160;DHT22;8185;57.818;15.224;2022-07-05T14:24:12;22.40;93.20
16160;DHT22;8185;57.818;15.224;2022-07-05T14:26:40;22.60;92.60
16160;DHT22;8185;57.818;15.224;2022-07-05T14:29:10;22.30;92.30
16160;DHT22;8185;57.818;15.224;2022-07-05T14:31:39;21.30;92.40
16160;DHT22;8185;57.818;15.224;2022-07-05T14:34:06;20.30;93.70
16160;DHT22;8185;57.818;15.224;2022-07-05T14:36:33;19.50;95.50
16160;DHT22;8185;57.818;15.224;2022-07-05T14:39:00;18.30;96.70
16160;DHT22;8185;57.818;15.224;2022-07-05T14:41:28;17.50;98.40
16160;DHT22;8185;57.818;15.224;2022-07-05T14:43:55;17.00;99.90
16160;DHT22;8185;57.818;15.224;2022-07-05T14:46:22;15.70;99.90
16160;DHT22;8185;57.818;15.224;2022-07-05T14:48:51;14.40;99.90
16160;DHT22;8185;57.818;15.224;2022-07-05T14:51:18;13.50;99.90
16160;DHT22;8185;57.818;15.224;2022-07-05T14:53:47;13.10;99.90
16160;DHT22;8185;57.818;15.224;2022-07-05T14:56:15;13.00;99.90
16160;DHT22;8185;57.818;15.224;2022-07-05T14:58:42;12.80;99.90
16160;DHT22;8185;57.818;15.224;2022-07-05T15:01:10;12.80;99.90
16160;DHT22;8185;57.818;15.224;2022-07-05T15:03:37;12.80;99.90
16160;DHT22;8185;57.818;15.224;2022-07-05T15:06:07;12.90;99.90
16160;DHT22;8185;57.818;15.224;2022-07-05T15:08:34;13.00;99.90
16160;DHT22;8185;57.818;15.224;2022-07-05T15:11:02;13.30;99.90
16160;DHT22;8185;57.818;15.224;2022-07-05T15:13:30;13.70;99.90
16160;DHT22;8185;57.818;15.224;2022-07-05T15:15:57;14.50;99.90
16160;DHT22;8185;57.818;15.224;2022-07-05T15:18:25;15.30;99.90
16160;DHT22;8185;57.818;15.224;2022-07-05T15:20:52;15.90;99.90
16160;DHT22;8185;57.818;15.224;2022-07-05T15:23:21;15.90;99.90
16160;DHT22;8185;57.818;15.224;2022-07-05T15:25:53;15.80;99.90
16160;DHT22;8185;57.818;15.224;2022-07-05T15:28:20;16.10;99.90
16160;DHT22;8185;57.818;15.224;2022-07-05T15:30:48;17.00;99.90
16160;DHT22;8185;57.818;15.224;2022-07-05T15:33:15;17.30;99.90
16160;DHT22;8185;57.818;15.224;2022-07-05T15:35:42;18.20;99.90
16160;DHT22;8185;57.818;15.224;2022-07-05T15:38:10;19.30;99.90
16160;DHT22;8185;57.818;15.224;2022-07-05T15:40:38;20.10;99.90
16160;DHT22;8185;57.818;15.224;2022-07-05T15:43:06;20.40;99.90
16160;DHT22;8185;57.818;15.224;2022-07-05T15:45:33;20.20;99.90
16160;DHT22;8185;57.818;15.224;2022-07-05T15:48:00;20.60;99.90